createdAt,value
2022-07-28T08:10:18.841Z,1.90
2022-07-28T08:12:52.096Z,1.80
2022-07-28T08:15:26.696Z,1.90
2022-07-28T08:18:02.337Z,1.80
2022-07-28T08:20:35.377Z,2.00
2022-07-28T08:23:09.458Z,1.70
2022-07-28T08:25:42.460Z,1.90
2022-07-28T08:28:15.458Z,1.80
2022-07-28T08:30:48.379Z,2.10
2022-07-28T08:33:22.341Z,1.90
2022-07-28T08:35:57.146Z,1.60
2022-07-28T08:38:30.578Z,1.80
2022-07-28T08:41:06.495Z,1.90
2022-07-28T08:43:43.258Z,1.80
2022-07-28T08:46:16.929Z,2.00
2022-07-28T08:48:52.774Z,1.50
2022-07-28T08:51:29.178Z,1.70
2022-07-28T08:54:03.924Z,2.70
2022-07-28T08:56:48.134Z,1.80
2022-07-28T08:59:21.587Z,2.10
2022-07-28T09:01:57.639Z,1.50
2022-07-28T09:04:34.617Z,1.90
2022-07-28T09:07:07.857Z,1.90
2022-07-28T09:09:41.296Z,1.60
2022-07-28T09:12:14.978Z,1.50
2022-07-28T09:14:49.576Z,1.60
2022-07-28T09:17:23.145Z,2.20
2022-07-28T09:19:56.024Z,1.40
2022-07-28T09:24:59.737Z,1.50
2022-07-28T09:27:45.098Z,1.60
2022-07-28T09:30:17.939Z,1.50
2022-07-28T09:35:25.498Z,1.10
2022-07-28T09:38:06.234Z,1.20
2022-07-28T09:40:39.222Z,1.30
2022-07-28T09:45:43.338Z,1.80
2022-07-28T09:48:19.040Z,1.30
2022-07-28T09:50:52.018Z,1.20
2022-07-28T09:53:29.059Z,1.50
2022-07-28T09:56:03.745Z,1.40
2022-07-28T09:58:37.298Z,1.60
2022-07-28T10:01:13.224Z,1.30
2022-07-28T10:03:50.584Z,1.70
2022-07-28T10:06:30.378Z,2.40
2022-07-28T10:09:06.141Z,1.50
2022-07-28T10:11:41.745Z,1.40
2022-07-28T10:14:16.304Z,1.30
2022-07-28T10:16:53.631Z,1.30
2022-07-28T10:19:27.577Z,1.50
2022-07-28T10:22:01.496Z,1.20
2022-07-28T10:24:37.459Z,0.90
2022-07-28T10:27:10.935Z,1.50
2022-07-28T10:29:46.339Z,1.70
2022-07-28T10:32:19.217Z,1.60
2022-07-28T10:37:28.577Z,1.40
2022-07-28T10:40:10.118Z,1.40
2022-07-28T10:43:04.783Z,1.30
2022-07-28T10:46:04.490Z,1.80
2022-07-28T10:48:33.323Z,1.60
2022-07-28T10:51:07.025Z,1.30
2022-07-28T10:54:03.815Z,1.10
2022-07-28T10:56:48.201Z,1.60
2022-07-28T10:59:37.465Z,1.20
2022-07-28T11:02:11.074Z,1.00
2022-07-28T11:05:02.298Z,1.80
2022-07-28T11:07:44.055Z,1.80
2022-07-28T11:10:27.176Z,1.10
2022-07-28T11:13:04.053Z,1.20
2022-07-28T11:15:38.941Z,1.30
2022-07-28T11:18:13.337Z,1.50
2022-07-28T11:21:09.699Z,1.90
2022-07-28T11:23:49.260Z,1.50
2022-07-28T11:26:39.233Z,1.60
2022-07-28T11:29:23.817Z,1.60
2022-07-28T11:32:04.938Z,1.50
2022-07-28T11:35:15.018Z,1.50
2022-07-28T11:38:17.057Z,1.60
2022-07-28T11:40:52.137Z,1.30
2022-07-28T11:43:44.300Z,1.30
2022-07-28T11:46:38.597Z,1.50
2022-07-28T11:52:11.499Z,1.30
2022-07-28T11:54:49.627Z,1.30
2022-07-28T11:57:24.617Z,1.60
2022-07-28T12:00:00.538Z,1.40
2022-07-28T12:02:34.706Z,1.30
2022-07-28T12:05:12.650Z,1.70
2022-07-28T12:07:48.617Z,1.80
2022-07-28T12:13:39.350Z,1.50
2022-07-28T12:16:15.056Z,1.80
2022-07-28T12:18:53.776Z,1.30
2022-07-28T12:21:46.631Z,1.80
2022-07-28T12:24:28.225Z,1.60
2022-07-28T12:27:01.858Z,1.70
2022-07-28T12:29:36.077Z,1.60
2022-07-28T12:32:11.012Z,1.40
2022-07-28T12:34:45.050Z,1.40
2022-07-28T12:37:18.257Z,1.40
2022-07-28T12:39:55.145Z,1.40
2022-07-28T12:42:34.300Z,1.90
2022-07-28T12:45:10.538Z,1.40
2022-07-28T12:47:44.060Z,1.40
2022-07-28T12:50:19.458Z,1.40
2022-07-28T12:56:01.160Z,1.50
2022-07-28T12:58:36.697Z,2.20
2022-07-28T13:01:12.871Z,1.90
2022-07-28T13:03:53.899Z,1.60
2022-07-28T13:06:27.619Z,1.40
2022-07-28T13:09:04.659Z,1.30
2022-07-28T13:11:47.107Z,1.80
2022-07-28T13:14:20.305Z,1.90
2022-07-28T13:17:02.431Z,1.20
2022-07-28T13:19:38.462Z,1.30
2022-07-28T13:22:15.618Z,1.70
2022-07-28T13:24:49.025Z,1.70
2022-07-28T13:27:21.777Z,1.50
2022-07-28T13:32:28.635Z,1.40
2022-07-28T13:35:02.022Z,1.20
2022-07-28T13:37:36.658Z,1.60
2022-07-28T13:40:11.437Z,1.40
2022-07-28T13:42:53.449Z,1.50
2022-07-28T13:45:31.021Z,1.50
2022-07-28T13:48:05.016Z,1.70
2022-07-28T13:50:40.058Z,1.50
2022-07-28T13:56:02.300Z,1.60
2022-07-28T14:01:07.062Z,1.20
2022-07-28T14:03:55.284Z,1.20
2022-07-28T14:06:30.697Z,1.70
2022-07-28T14:09:04.546Z,1.30
2022-07-28T14:11:37.616Z,1.60
2022-07-28T14:14:12.491Z,1.60
2022-07-28T14:16:47.876Z,1.80
2022-07-28T14:19:23.063Z,1.50
2022-07-28T14:22:14.085Z,1.80
2022-07-28T14:24:47.260Z,1.30
2022-07-28T14:27:28.636Z,1.40
2022-07-28T14:30:03.368Z,1.60
2022-07-28T14:32:38.971Z,1.50
2022-07-28T14:35:12.578Z,1.40
2022-07-28T14:40:39.951Z,1.40
2022-07-28T14:43:14.451Z,1.30
2022-07-28T14:46:00.433Z,1.50
2022-07-28T14:48:44.130Z,1.90
2022-07-28T14:51:17.342Z,1.20
2022-07-28T14:53:52.097Z,1.40
2022-07-28T14:56:25.537Z,1.40
2022-07-28T14:58:58.417Z,1.30
2022-07-28T15:04:10.686Z,1.70
2022-07-28T15:06:45.300Z,1.30
2022-07-28T15:09:18.700Z,2.10
2022-07-28T15:11:52.097Z,1.40
2022-07-28T15:14:25.215Z,1.50
2022-07-28T15:16:59.221Z,1.50
2022-07-28T15:19:34.617Z,1.50
2022-07-28T15:22:07.738Z,1.10
2022-07-28T15:24:42.497Z,1.60
2022-07-28T15:27:18.737Z,1.40
2022-07-28T15:29:55.579Z,1.30
2022-07-28T15:32:37.249Z,1.70
2022-07-28T15:35:20.663Z,1.30
2022-07-28T15:37:53.698Z,1.40
2022-07-28T15:40:26.856Z,1.40
2022-07-28T15:43:01.156Z,1.60
2022-07-28T15:45:35.818Z,1.60
2022-07-28T15:48:12.660Z,1.60
2022-07-28T15:50:49.677Z,2.30
2022-07-28T15:53:23.099Z,1.40
2022-07-28T15:55:56.147Z,1.50
2022-07-28T15:58:31.299Z,1.50
2022-07-28T16:01:04.261Z,1.60
2022-07-28T16:03:37.256Z,1.80
2022-07-28T16:06:10.457Z,1.40
2022-07-28T16:08:44.097Z,1.40
2022-07-28T16:11:17.989Z,1.40
2022-07-28T16:13:51.379Z,4.10
2022-07-28T16:16:24.312Z,1.60
2022-07-28T16:18:59.981Z,1.40
2022-07-28T16:21:32.742Z,1.30
2022-07-28T16:26:39.380Z,1.30
2022-07-28T16:29:14.299Z,1.20
2022-07-28T16:31:47.136Z,1.60
2022-07-28T16:36:51.738Z,1.40
2022-07-28T16:39:24.776Z,1.30
2022-07-28T16:41:59.255Z,1.60
2022-07-28T16:44:32.832Z,1.20
2022-07-28T16:47:06.501Z,1.50
2022-07-28T16:49:45.269Z,1.40
2022-07-28T16:52:19.657Z,1.40
2022-07-28T16:54:53.426Z,1.40
2022-07-28T16:57:26.898Z,1.50
2022-07-28T17:00:00.119Z,1.40
2022-07-28T17:02:33.616Z,1.60
2022-07-28T17:05:07.356Z,1.40
2022-07-28T17:07:45.668Z,1.50
2022-07-28T17:10:20.535Z,1.70
2022-07-28T17:12:59.659Z,1.50
2022-07-28T17:15:33.049Z,1.50
2022-07-28T17:18:06.507Z,1.30
2022-07-28T17:20:42.744Z,1.40
2022-07-28T17:23:17.459Z,1.60
2022-07-28T17:26:34.705Z,1.40
2022-07-28T17:28:43.537Z,1.70
2022-07-28T17:31:16.582Z,1.70
2022-07-28T17:33:50.500Z,2.50
2022-07-28T17:36:23.583Z,2.50
2022-07-28T17:41:30.858Z,2.10
2022-07-28T17:44:03.902Z,1.90
2022-07-28T17:46:37.329Z,2.10
2022-07-28T17:49:11.454Z,1.80
2022-07-28T17:51:45.416Z,2.30
2022-07-28T17:54:20.216Z,2.20
2022-07-28T17:56:57.100Z,2.00
2022-07-28T17:59:35.905Z,2.50
2022-07-28T18:02:24.784Z,1.60
2022-07-28T18:04:57.696Z,2.80
2022-07-28T18:07:31.098Z,2.10
2022-07-28T18:10:24.953Z,2.60
2022-07-28T18:13:00.153Z,2.50
2022-07-28T18:15:33.154Z,2.60
2022-07-28T18:20:38.181Z,3.80
2022-07-28T18:23:11.858Z,2.60
2022-07-28T18:25:45.338Z,2.80
2022-07-28T18:28:21.057Z,2.30
2022-07-28T18:30:53.965Z,2.50
2022-07-28T18:35:58.498Z,3.00
2022-07-28T18:38:32.712Z,3.80
2022-07-28T18:41:05.657Z,3.30
2022-07-28T18:43:38.538Z,2.70
2022-07-28T18:46:11.463Z,2.70
2022-07-28T18:48:48.105Z,2.50
2022-07-28T18:51:25.651Z,2.40
2022-07-28T18:53:59.016Z,2.90
2022-07-28T18:56:32.741Z,2.00
2022-07-28T18:59:05.816Z,2.10
2022-07-28T19:01:38.988Z,2.30
2022-07-28T19:06:45.434Z,5.80
2022-07-28T19:09:18.779Z,6.10
2022-07-28T19:11:53.100Z,7.20
2022-07-28T19:14:26.067Z,8.10
2022-07-28T19:19:33.865Z,5.10
2022-07-28T19:22:09.540Z,4.30
2022-07-28T19:24:42.707Z,3.40
2022-07-28T19:29:46.744Z,3.20
2022-07-28T19:32:20.355Z,3.70
2022-07-28T19:34:53.386Z,3.80
2022-07-28T19:37:26.867Z,4.20
2022-07-28T19:39:59.901Z,3.80
2022-07-28T19:42:35.866Z,4.50
2022-07-28T19:45:10.618Z,4.20
2022-07-28T19:47:43.938Z,4.00
2022-07-28T19:52:47.778Z,3.00
2022-07-28T19:55:23.455Z,3.40
2022-07-28T19:57:56.778Z,3.20
2022-07-28T20:03:00.740Z,3.30
2022-07-28T20:08:04.697Z,2.80
2022-07-28T20:10:41.102Z,3.60
2022-07-28T20:13:16.163Z,3.20
2022-07-28T20:15:48.975Z,2.90
2022-07-28T20:18:22.337Z,2.80
2022-07-28T20:20:57.820Z,3.20
2022-07-28T20:23:30.696Z,3.00
2022-07-28T20:26:04.219Z,3.40
2022-07-28T20:28:38.540Z,2.80
2022-07-28T20:31:17.612Z,3.30
2022-07-28T20:33:50.857Z,3.50
2022-07-28T20:39:15.777Z,2.80
2022-07-28T20:41:54.403Z,3.30
2022-07-28T20:44:29.133Z,3.20
2022-07-28T20:47:06.136Z,3.70
2022-07-28T20:49:40.984Z,3.30
2022-07-28T20:52:14.020Z,3.50
2022-07-28T20:54:54.306Z,2.60
2022-07-28T20:57:27.978Z,3.50
2022-07-28T21:00:05.148Z,3.90
2022-07-28T21:02:38.628Z,3.90
2022-07-28T21:05:26.615Z,3.50
2022-07-28T21:08:09.150Z,3.60
2022-07-28T21:10:49.456Z,2.90
2022-07-28T21:15:53.737Z,3.30
2022-07-28T21:18:26.538Z,3.40
2022-07-28T21:20:59.937Z,3.70
2022-07-28T21:23:32.696Z,3.60
2022-07-28T21:26:11.858Z,3.30
2022-07-28T21:29:03.417Z,3.60
2022-07-28T21:31:36.616Z,3.10
2022-07-28T21:34:29.508Z,3.40
2022-07-28T21:37:02.502Z,3.50
2022-07-28T21:39:37.030Z,3.70
2022-07-28T21:42:10.336Z,3.70
2022-07-28T21:44:43.095Z,3.30
2022-07-28T21:47:36.148Z,3.20
2022-07-28T21:50:11.057Z,3.80
2022-07-28T21:52:44.099Z,3.80
2022-07-28T21:55:17.178Z,4.50
2022-07-28T21:57:51.896Z,3.30
2022-07-28T22:00:25.460Z,3.60
2022-07-28T22:03:00.317Z,3.80
2022-07-28T22:05:34.177Z,3.80
2022-07-28T22:08:09.015Z,3.20
2022-07-28T22:10:42.056Z,3.10
2022-07-28T22:13:20.218Z,3.30
2022-07-28T22:15:53.216Z,3.40
2022-07-28T22:18:27.378Z,3.50
2022-07-28T22:21:00.377Z,3.30
2022-07-28T22:23:34.657Z,3.20
2022-07-28T22:26:07.938Z,2.80
2022-07-28T22:28:40.667Z,3.00
2022-07-28T22:31:13.888Z,3.30
2022-07-28T22:33:47.339Z,3.10
2022-07-28T22:36:21.735Z,2.80
2022-07-28T22:38:55.983Z,3.00
2022-07-28T22:41:29.217Z,2.80
2022-07-28T22:44:02.864Z,2.80
2022-07-28T22:46:37.073Z,2.70
2022-07-28T22:49:10.501Z,2.70
2022-07-28T22:51:48.201Z,2.80
2022-07-28T22:54:21.664Z,2.60
2022-07-28T22:56:54.741Z,2.50
2022-07-28T22:59:30.010Z,2.50
2022-07-28T23:02:10.976Z,2.40
2022-07-28T23:04:51.185Z,2.70
2022-07-28T23:07:35.271Z,2.80
2022-07-28T23:10:17.829Z,2.40
2022-07-28T23:12:50.938Z,2.40
2022-07-28T23:15:40.670Z,2.20
2022-07-28T23:18:15.421Z,2.50
2022-07-28T23:20:49.419Z,2.50
2022-07-28T23:23:22.345Z,2.80
2022-07-28T23:25:55.099Z,2.60
2022-07-28T23:30:59.821Z,2.80
2022-07-28T23:33:54.565Z,2.50
2022-07-28T23:36:28.221Z,3.10
2022-07-28T23:39:02.302Z,2.10
2022-07-28T23:41:40.658Z,2.10
2022-07-28T23:44:14.418Z,2.10
2022-07-28T23:46:49.253Z,2.00
2022-07-28T23:49:22.354Z,2.20
2022-07-28T23:51:58.261Z,2.80
2022-07-28T23:54:31.660Z,2.00
2022-07-28T23:59:38.623Z,1.80
